createdAt,value
2022-08-20T00:00:00.086Z,19.30
2022-08-20T00:02:42.011Z,21.90
2022-08-20T00:05:18.355Z,21.70
2022-08-20T00:07:54.181Z,21.80
2022-08-20T00:11:31.650Z,19.10
2022-08-20T00:14:13.387Z,19.10
2022-08-20T00:16:51.194Z,19.10
2022-08-20T00:19:27.177Z,20.00
2022-08-20T00:22:12.051Z,19.00
2022-08-20T00:24:48.824Z,22.10
2022-08-20T00:27:23.502Z,18.90
2022-08-20T00:30:30.396Z,21.80
2022-08-20T00:33:12.427Z,18.80
2022-08-20T00:35:52.086Z,18.80
2022-08-20T00:38:29.877Z,18.90
2022-08-20T00:41:16.739Z,21.40
2022-08-20T00:43:54.385Z,21.20
2022-08-20T00:46:49.186Z,18.90
2022-08-20T00:49:28.173Z,18.90
2022-08-20T00:52:09.061Z,19.00
2022-08-20T00:54:47.030Z,19.00
2022-08-20T00:57:26.406Z,19.20
2022-08-20T01:00:02.662Z,22.40
2022-08-20T01:02:43.076Z,18.90
2022-08-20T01:05:28.663Z,20.30
2022-08-20T01:08:12.021Z,21.60
2022-08-20T01:10:54.381Z,19.00
2022-08-20T01:13:31.510Z,19.80
2022-08-20T01:16:21.713Z,18.90
2022-08-20T01:19:02.476Z,18.90
2022-08-20T01:21:39.286Z,19.90
2022-08-20T01:24:21.314Z,18.90
2022-08-20T01:27:14.956Z,20.40
2022-08-20T01:34:13.566Z,18.80
2022-08-20T01:37:06.219Z,18.80
2022-08-20T01:39:40.757Z,18.80
2022-08-20T01:42:38.878Z,18.80
2022-08-20T01:46:05.524Z,18.80
2022-08-20T01:48:42.082Z,18.70
2022-08-20T01:51:28.384Z,18.60
2022-08-20T01:54:03.421Z,18.60
2022-08-20T01:56:53.301Z,18.70
2022-08-20T01:59:32.817Z,18.70
2022-08-20T02:02:18.587Z,19.90
2022-08-20T02:04:55.359Z,18.40
2022-08-20T02:07:36.334Z,20.40
2022-08-20T02:10:24.913Z,18.30
2022-08-20T02:12:59.661Z,18.20
2022-08-20T02:15:39.654Z,20.40
2022-08-20T02:18:18.371Z,21.80
2022-08-20T02:20:53.795Z,18.20
2022-08-20T02:23:29.144Z,18.30
2022-08-20T02:26:07.708Z,18.20
2022-08-20T02:28:44.363Z,21.60
2022-08-20T02:32:24.406Z,19.90
2022-08-20T02:35:18.788Z,18.10
2022-08-20T02:38:21.342Z,18.10
2022-08-20T02:41:00.581Z,18.00
2022-08-20T02:43:35.204Z,18.00
2022-08-20T02:46:24.021Z,18.00
2022-08-20T02:49:00.715Z,18.00
2022-08-20T02:51:36.474Z,20.10
2022-08-20T02:54:11.817Z,17.80
2022-08-20T02:56:48.371Z,18.80
2022-08-20T02:59:24.691Z,17.80
2022-08-20T03:02:01.167Z,21.00
2022-08-20T03:04:44.884Z,17.80
2022-08-20T03:07:57.055Z,18.10
2022-08-20T03:10:59.760Z,17.60
2022-08-20T03:13:34.992Z,19.20
2022-08-20T03:16:14.451Z,19.30
2022-08-20T03:18:53.438Z,17.50
2022-08-20T03:22:06.811Z,17.40
2022-08-20T03:24:59.804Z,17.30
2022-08-20T03:27:54.248Z,19.00
2022-08-20T03:30:31.571Z,17.30
2022-08-20T03:33:06.767Z,17.30
2022-08-20T03:35:41.729Z,18.30
2022-08-20T03:38:33.225Z,18.10
2022-08-20T03:42:16.992Z,18.80
2022-08-20T03:44:58.663Z,17.30
2022-08-20T03:47:34.226Z,18.90
2022-08-20T03:50:22.660Z,19.50
2022-08-20T03:54:15.656Z,17.30
2022-08-20T03:56:53.016Z,17.20
2022-08-20T03:59:27.558Z,17.20
2022-08-20T04:02:03.630Z,19.80
2022-08-20T04:04:43.379Z,17.10
2022-08-20T04:07:28.158Z,17.10
2022-08-20T04:10:06.905Z,19.20
2022-08-20T04:12:52.784Z,20.40
2022-08-20T04:15:30.553Z,16.90
2022-08-20T04:18:37.050Z,18.90
2022-08-20T04:21:18.425Z,16.90
2022-08-20T04:24:35.290Z,17.00
2022-08-20T04:27:15.398Z,17.00
2022-08-20T04:29:51.534Z,17.80
2022-08-20T04:32:26.181Z,17.10
2022-08-20T04:35:01.364Z,17.10
2022-08-20T04:37:47.839Z,17.00
2022-08-20T04:40:43.523Z,20.50
2022-08-20T04:43:17.955Z,17.10
2022-08-20T04:45:57.894Z,17.90
2022-08-20T04:48:36.482Z,20.50
2022-08-20T04:51:15.197Z,17.20
2022-08-20T04:53:51.755Z,17.10
2022-08-20T04:57:01.430Z,17.10
2022-08-20T04:59:42.172Z,17.20
2022-08-20T05:02:20.394Z,15.90
2022-08-20T05:04:55.077Z,17.40
2022-08-20T05:07:41.944Z,20.30
2022-08-20T05:10:23.350Z,17.40
2022-08-20T05:12:58.493Z,17.40
2022-08-20T05:15:48.835Z,18.00
2022-08-20T05:18:28.125Z,17.60
2022-08-20T05:21:41.742Z,17.70
2022-08-20T05:24:16.575Z,17.70
2022-08-20T05:27:06.667Z,20.50
2022-08-20T05:30:11.852Z,17.70
2022-08-20T05:33:19.976Z,17.80
2022-08-20T05:35:57.991Z,17.90
2022-08-20T05:38:59.716Z,18.50
2022-08-20T05:41:53.632Z,17.90
2022-08-20T05:44:28.164Z,18.00
2022-08-20T05:47:04.148Z,18.00
2022-08-20T05:49:42.004Z,18.80
2022-08-20T05:52:18.896Z,18.90
2022-08-20T05:54:53.410Z,21.90
2022-08-20T05:57:28.266Z,18.10
2022-08-20T06:00:11.219Z,20.00
2022-08-20T06:03:05.530Z,18.20
2022-08-20T06:05:48.742Z,19.30
2022-08-20T06:08:25.600Z,18.30
2022-08-20T06:11:00.560Z,21.10
2022-08-20T06:13:35.703Z,18.40
2022-08-20T06:16:09.966Z,18.40
2022-08-20T06:18:55.111Z,19.90
2022-08-20T06:21:34.444Z,20.10
2022-08-20T06:24:11.025Z,20.40
2022-08-20T06:26:48.178Z,21.40
2022-08-20T06:29:23.535Z,20.70
2022-08-20T06:32:13.253Z,21.80
2022-08-20T06:34:49.835Z,19.60
2022-08-20T06:37:38.285Z,19.70
2022-08-20T06:40:25.608Z,20.90
2022-08-20T06:43:00.759Z,20.90
2022-08-20T06:45:36.813Z,20.20
2022-08-20T06:48:15.332Z,19.80
2022-08-20T06:50:50.201Z,21.70
2022-08-20T06:53:30.830Z,23.30
2022-08-20T06:56:07.220Z,20.20
2022-08-20T06:58:42.886Z,20.20
2022-08-20T07:01:21.474Z,21.60
2022-08-20T07:04:00.645Z,20.40
2022-08-20T07:06:37.839Z,20.50
2022-08-20T07:09:12.415Z,20.60
2022-08-20T07:11:49.345Z,24.00
2022-08-20T07:14:24.680Z,20.70
2022-08-20T07:17:41.719Z,21.00
2022-08-20T07:21:12.699Z,20.80
2022-08-20T07:24:56.129Z,20.90
2022-08-20T07:40:36.643Z,21.10
2022-08-20T07:48:06.519Z,21.20
2022-08-20T07:50:47.240Z,21.30
2022-08-20T07:53:39.676Z,21.50
2022-08-20T07:56:28.176Z,22.20
2022-08-20T07:59:09.993Z,21.70
2022-08-20T08:06:00.810Z,21.70
2022-08-20T08:13:17.901Z,24.30
2022-08-20T08:17:06.357Z,22.80
2022-08-20T08:24:02.003Z,22.20
2022-08-20T08:30:49.050Z,22.40
2022-08-20T08:33:34.110Z,23.70
2022-08-20T08:36:21.513Z,22.70
2022-08-20T08:39:06.999Z,22.60
2022-08-20T08:41:49.912Z,23.50
2022-08-20T08:44:50.341Z,25.80
2022-08-20T08:58:30.767Z,23.10
2022-08-20T09:05:55.907Z,23.20
2022-08-20T09:09:07.807Z,23.40
2022-08-20T09:12:13.925Z,23.40
2022-08-20T09:16:10.247Z,23.40
2022-08-20T09:18:53.935Z,23.40
2022-08-20T09:22:09.262Z,23.50
2022-08-20T09:24:56.940Z,23.60
2022-08-20T09:27:43.557Z,23.60
2022-08-20T09:30:22.992Z,23.70
2022-08-20T09:33:01.674Z,24.80
2022-08-20T09:35:36.413Z,23.60
2022-08-20T09:38:11.206Z,26.30
2022-08-20T09:40:49.728Z,23.80
2022-08-20T09:43:54.741Z,25.50
2022-08-20T09:50:48.005Z,24.40
2022-08-20T09:57:41.458Z,24.80
2022-08-20T10:00:20.387Z,24.90
2022-08-20T10:03:08.471Z,24.80
2022-08-20T10:05:55.543Z,25.50
2022-08-20T10:08:49.063Z,24.50
2022-08-20T10:19:51.267Z,23.70
2022-08-20T10:22:27.414Z,24.70
2022-08-20T10:25:13.582Z,24.20
2022-08-20T10:28:12.078Z,25.20
2022-08-20T10:30:48.250Z,21.00
2022-08-20T10:34:10.225Z,22.10
2022-08-20T10:41:02.575Z,19.90
2022-08-20T10:43:48.885Z,16.80
2022-08-20T10:46:23.848Z,20.00
2022-08-20T10:48:58.804Z,22.70
2022-08-20T10:52:48.582Z,23.40
2022-08-20T10:55:54.366Z,19.70
2022-08-20T10:59:29.380Z,19.40
2022-08-20T11:02:07.752Z,19.20
2022-08-20T11:05:02.741Z,21.80
2022-08-20T11:07:55.918Z,19.20
2022-08-20T11:10:48.631Z,20.80
2022-08-20T11:13:24.022Z,22.80
2022-08-20T11:15:58.894Z,19.10
2022-08-20T11:19:02.170Z,21.10
2022-08-20T11:22:14.200Z,18.90
2022-08-20T11:25:06.908Z,18.80
2022-08-20T11:27:45.623Z,18.70
2022-08-20T11:30:23.298Z,18.70
2022-08-20T11:33:07.916Z,21.80
2022-08-20T11:39:56.941Z,18.60
2022-08-20T11:46:44.245Z,18.60
2022-08-20T11:53:31.208Z,18.60
2022-08-20T12:00:32.351Z,18.70
2022-08-20T12:04:00.696Z,18.80
2022-08-20T12:06:35.620Z,18.70
2022-08-20T12:09:24.688Z,20.40
2022-08-20T12:12:02.129Z,18.80
2022-08-20T12:14:37.038Z,20.40
2022-08-20T12:17:19.770Z,20.70
2022-08-20T12:24:06.857Z,19.10
2022-08-20T12:27:30.098Z,19.30
2022-08-20T12:38:32.824Z,19.90
2022-08-20T12:42:22.029Z,20.20
2022-08-20T12:44:56.948Z,20.40
2022-08-20T12:47:38.953Z,20.60
2022-08-20T12:50:22.709Z,20.70
2022-08-20T12:57:17.451Z,21.10
2022-08-20T13:04:06.460Z,21.60
2022-08-20T13:07:31.184Z,22.00
2022-08-20T13:11:06.837Z,22.10
2022-08-20T13:13:46.989Z,22.20
2022-08-20T13:16:21.825Z,22.40
2022-08-20T13:19:18.565Z,22.50
2022-08-20T13:22:18.531Z,22.50
2022-08-20T13:24:55.580Z,22.70
2022-08-20T13:27:30.317Z,24.80
2022-08-20T13:30:11.101Z,25.30
2022-08-20T13:32:48.635Z,23.10
2022-08-20T13:35:25.276Z,23.60
2022-08-20T13:38:01.051Z,24.40
2022-08-20T13:40:36.908Z,25.00
2022-08-20T13:43:12.427Z,23.00
2022-08-20T13:45:56.268Z,24.10
2022-08-20T13:48:59.922Z,23.80
2022-08-20T13:51:54.080Z,22.50
2022-08-20T13:54:30.647Z,22.20
2022-08-20T13:57:16.256Z,25.10
2022-08-20T13:59:59.106Z,22.90
2022-08-20T14:02:37.139Z,21.50
2022-08-20T14:05:14.880Z,21.60
2022-08-20T14:08:47.916Z,21.40
2022-08-20T14:11:22.504Z,21.10
2022-08-20T14:13:57.940Z,23.00
2022-08-20T14:17:17.449Z,22.10
2022-08-20T14:20:32.114Z,21.40
2022-08-20T14:23:07.968Z,21.70
2022-08-20T14:25:50.638Z,22.20
2022-08-20T14:28:47.939Z,24.60
2022-08-20T14:32:23.542Z,22.90
2022-08-20T14:35:59.001Z,23.30
2022-08-20T14:39:30.243Z,23.80
2022-08-20T14:42:12.671Z,23.90
2022-08-20T14:44:47.371Z,24.10
2022-08-20T14:47:27.153Z,23.90
2022-08-20T14:50:10.383Z,23.80
2022-08-20T14:52:54.748Z,23.60
2022-08-20T14:55:36.495Z,23.60
2022-08-20T14:58:42.140Z,25.10
2022-08-20T15:01:59.997Z,23.70
2022-08-20T15:04:37.736Z,23.70
2022-08-20T15:07:27.593Z,23.90
2022-08-20T15:14:18.386Z,24.00
2022-08-20T15:17:57.172Z,25.80
2022-08-20T15:25:00.895Z,23.30
2022-08-20T15:27:36.919Z,23.60
2022-08-20T15:30:23.759Z,24.90
2022-08-20T15:32:58.689Z,23.70
2022-08-20T15:35:33.553Z,23.60
2022-08-20T15:38:13.134Z,22.80
2022-08-20T15:40:49.610Z,25.50
2022-08-20T15:43:24.335Z,23.20
2022-08-20T15:46:06.497Z,24.20
2022-08-20T15:48:46.914Z,23.00
2022-08-20T15:51:45.460Z,20.50
2022-08-20T15:54:28.854Z,23.10
2022-08-20T15:57:13.157Z,22.80
2022-08-20T16:00:10.422Z,24.90
2022-08-20T16:03:38.755Z,22.80
2022-08-20T16:06:36.168Z,22.60
2022-08-20T16:18:31.374Z,22.30
2022-08-20T16:22:01.457Z,22.30
2022-08-20T16:29:33.975Z,22.10
2022-08-20T16:33:16.082Z,22.10
2022-08-20T16:37:12.344Z,22.10
2022-08-20T16:40:26.901Z,22.20
2022-08-20T16:44:00.792Z,22.20
2022-08-20T16:46:44.923Z,22.00
2022-08-20T16:50:44.243Z,22.50
2022-08-20T16:54:12.707Z,22.10
2022-08-20T17:05:50.825Z,22.10
2022-08-20T17:12:32.354Z,22.30
2022-08-20T17:23:54.722Z,21.90
2022-08-20T17:30:43.224Z,21.70
2022-08-20T17:34:16.065Z,21.60
2022-08-20T17:37:01.046Z,21.70
2022-08-20T17:44:33.854Z,21.60
2022-08-20T17:48:27.262Z,21.50
2022-08-20T17:51:44.524Z,21.40
2022-08-20T17:54:57.994Z,21.30
2022-08-20T18:06:28.482Z,21.10
2022-08-20T18:10:20.652Z,21.10
2022-08-20T18:15:59.938Z,20.90
2022-08-20T18:23:21.829Z,20.60
2022-08-20T18:26:13.865Z,20.40
2022-08-20T18:29:14.538Z,20.60
2022-08-20T18:31:59.200Z,20.30
2022-08-20T18:34:42.611Z,21.80
2022-08-20T18:37:42.162Z,20.30
2022-08-20T18:40:29.154Z,20.00
2022-08-20T18:47:24.612Z,19.90
2022-08-20T18:54:27.303Z,19.70
2022-08-20T19:01:16.765Z,19.50
2022-08-20T19:04:28.618Z,19.50
2022-08-20T19:08:14.542Z,19.40
2022-08-20T19:11:43.332Z,19.30
2022-08-20T19:15:03.739Z,19.20
2022-08-20T19:18:08.971Z,19.10
2022-08-20T19:21:15.814Z,19.00
2022-08-20T19:23:59.621Z,19.00
2022-08-20T19:26:44.342Z,18.80
2022-08-20T19:30:08.710Z,20.00
2022-08-20T19:34:19.655Z,18.80
2022-08-20T19:43:12.977Z,19.50
2022-08-20T19:46:05.801Z,18.50
2022-08-20T19:48:56.746Z,19.30
2022-08-20T19:52:09.341Z,18.50
2022-08-20T19:55:04.425Z,20.10
2022-08-20T19:57:39.273Z,18.30
2022-08-20T20:00:17.148Z,19.50
2022-08-20T20:02:56.685Z,18.20
2022-08-20T20:05:34.231Z,19.60
2022-08-20T20:08:12.991Z,18.10
2022-08-20T20:10:56.036Z,18.10
2022-08-20T20:13:39.549Z,18.80
2022-08-20T20:16:18.604Z,20.50
2022-08-20T20:19:25.384Z,18.00
2022-08-20T20:22:24.840Z,17.90
2022-08-20T20:25:24.080Z,17.80
2022-08-20T20:29:04.424Z,17.70
2022-08-20T20:31:50.753Z,17.60
2022-08-20T20:34:30.329Z,17.70
2022-08-20T20:37:18.235Z,17.60
2022-08-20T20:40:49.161Z,17.60
2022-08-20T20:43:32.775Z,17.40
2022-08-20T20:46:15.336Z,17.40
2022-08-20T20:48:55.993Z,17.30
2022-08-20T20:51:44.346Z,20.10
2022-08-20T20:54:42.435Z,17.30
2022-08-20T20:58:27.174Z,17.30
2022-08-20T21:01:52.579Z,17.20
2022-08-20T21:04:28.871Z,17.10
2022-08-20T21:07:26.129Z,17.10
2022-08-20T21:10:12.761Z,17.00
2022-08-20T21:12:55.021Z,18.70
2022-08-20T21:16:00.083Z,16.80
2022-08-20T21:18:39.768Z,16.80
2022-08-20T21:21:45.663Z,18.30
2022-08-20T21:25:00.627Z,16.70
2022-08-20T21:28:18.183Z,16.80
2022-08-20T21:30:58.323Z,16.60
2022-08-20T21:34:11.068Z,17.60
2022-08-20T21:37:08.004Z,16.50
2022-08-20T21:39:43.077Z,16.50
2022-08-20T21:42:29.301Z,16.50
2022-08-20T21:45:05.875Z,16.50
2022-08-20T21:47:43.573Z,16.40
2022-08-20T21:50:38.622Z,16.40
2022-08-20T21:53:38.204Z,16.30
2022-08-20T21:56:32.727Z,16.20
2022-08-20T21:59:10.042Z,17.30
2022-08-20T22:03:04.219Z,18.30
2022-08-20T22:05:50.234Z,16.20
2022-08-20T22:08:30.829Z,16.00
2022-08-20T22:11:39.005Z,16.00
2022-08-20T22:14:32.301Z,15.90
2022-08-20T22:17:12.705Z,15.90
2022-08-20T22:19:48.217Z,16.40
2022-08-20T22:22:40.473Z,15.80
2022-08-20T22:25:43.262Z,17.40
2022-08-20T22:28:20.633Z,15.80
2022-08-20T22:31:48.478Z,15.70
2022-08-20T22:34:25.633Z,15.60
2022-08-20T22:38:12.737Z,15.60
2022-08-20T22:41:51.190Z,15.50
2022-08-20T22:44:36.982Z,15.60
2022-08-20T22:47:11.734Z,15.60
2022-08-20T22:50:00.812Z,15.50
2022-08-20T22:53:23.999Z,15.50
2022-08-20T22:56:19.976Z,15.40
2022-08-20T22:59:01.218Z,15.40
2022-08-20T23:01:45.372Z,15.30
2022-08-20T23:04:33.047Z,15.20
2022-08-20T23:07:16.151Z,15.20
2022-08-20T23:10:25.267Z,15.20
2022-08-20T23:13:24.460Z,15.10
2022-08-20T23:15:58.963Z,15.20
2022-08-20T23:18:44.668Z,15.20
2022-08-20T23:21:59.837Z,15.10
2022-08-20T23:25:30.477Z,15.10
2022-08-20T23:28:29.940Z,15.10
2022-08-20T23:31:13.444Z,15.10
2022-08-20T23:34:16.874Z,15.10
2022-08-20T23:37:01.957Z,15.00
2022-08-20T23:39:39.207Z,15.10
2022-08-20T23:43:14.818Z,15.20
2022-08-20T23:46:04.586Z,15.00
2022-08-20T23:48:55.098Z,15.00
2022-08-20T23:51:45.370Z,16.00
2022-08-20T23:54:48.494Z,14.90
2022-08-20T23:57:23.013Z,15.00
